createdAt,value
2018-04-02T00:00:03.400Z,0
2018-04-02T00:05:03.334Z,0
2018-04-02T00:10:02.951Z,0
2018-04-02T00:15:02.641Z,0
2018-04-02T00:20:03.287Z,0
2018-04-02T00:25:02.954Z,0
2018-04-02T00:30:03.568Z,0
2018-04-02T00:35:03.209Z,0
2018-04-02T00:40:02.864Z,0
2018-04-02T00:45:03.470Z,0
2018-04-02T00:50:03.147Z,0
2018-04-02T00:55:02.709Z,0
2018-04-02T01:00:03.286Z,0
2018-04-02T01:05:02.853Z,0
2018-04-02T01:10:03.477Z,0
2018-04-02T01:15:03.102Z,0
2018-04-02T01:20:02.758Z,0
2018-04-02T01:25:03.300Z,0
2018-04-02T01:30:02.863Z,0
2018-04-02T01:35:03.680Z,0
2018-04-02T01:40:03.399Z,0
2018-04-02T01:45:03.013Z,0
2018-04-02T01:50:03.748Z,0
2018-04-02T01:55:03.453Z,0
2018-04-02T02:00:03.007Z,0
2018-04-02T02:05:03.633Z,0
2018-04-02T02:10:03.335Z,0
2018-04-02T02:15:02.968Z,0
2018-04-02T02:20:03.557Z,0
2018-04-02T02:25:03.170Z,0
2018-04-02T02:30:02.736Z,0
2018-04-02T02:35:03.503Z,0
2018-04-02T02:40:03.239Z,0
2018-04-02T02:45:02.861Z,0
2018-04-02T02:50:03.528Z,0
2018-04-02T02:55:03.174Z,0
2018-04-02T03:00:02.782Z,0
2018-04-02T03:05:03.399Z,0
2018-04-02T03:10:03.298Z,0
2018-04-02T03:15:02.915Z,0
2018-04-02T03:20:03.545Z,0
2018-04-02T03:25:03.184Z,0
2018-04-02T03:30:02.810Z,0
2018-04-02T03:35:03.463Z,0
2018-04-02T03:40:03.163Z,0
2018-04-02T03:45:02.744Z,0
2018-04-02T03:50:03.340Z,0
2018-04-02T03:55:02.951Z,0
2018-04-02T04:00:03.621Z,0
2018-04-02T04:05:03.253Z,0
2018-04-02T04:10:02.861Z,1
2018-04-02T04:15:03.443Z,0
2018-04-02T04:20:03.077Z,0
2018-04-02T04:25:02.658Z,0
2018-04-02T04:30:03.246Z,0
2018-04-02T04:35:02.893Z,0
2018-04-02T04:40:03.733Z,0
2018-04-02T04:45:03.368Z,0
2018-04-02T04:50:02.931Z,0
2018-04-02T04:55:03.631Z,0
2018-04-02T05:00:03.212Z,0
2018-04-02T05:05:02.825Z,0
2018-04-02T05:10:03.574Z,0
2018-04-02T05:15:03.128Z,0
2018-04-02T05:20:02.766Z,0
2018-04-02T05:25:03.380Z,0
2018-04-02T05:30:02.964Z,0
2018-04-02T05:35:03.521Z,0
2018-04-02T05:40:03.143Z,0
2018-04-02T05:45:02.748Z,0
2018-04-02T05:50:03.302Z,0
2018-04-02T05:55:02.837Z,0
2018-04-02T06:00:03.456Z,0
2018-04-02T06:05:03.028Z,0
2018-04-02T06:10:02.737Z,0
2018-04-02T06:15:03.375Z,0
2018-04-02T06:20:02.984Z,0
2018-04-02T06:25:03.553Z,0
2018-04-02T06:30:03.150Z,0
2018-04-02T06:35:02.762Z,0
2018-04-02T06:40:03.422Z,0
2018-04-02T06:45:03.012Z,0
2018-04-02T06:50:02.690Z,0
2018-04-02T06:55:03.288Z,0
2018-04-02T07:00:03.233Z,0
2018-04-02T07:05:02.783Z,1
2018-04-02T07:10:03.374Z,2
2018-04-02T07:15:02.918Z,0
2018-04-02T07:20:03.506Z,0
2018-04-02T07:25:03.124Z,0
2018-04-02T07:30:02.697Z,0
2018-04-02T07:35:03.403Z,0
2018-04-02T07:40:02.979Z,0
2018-04-02T07:45:03.598Z,0
2018-04-02T07:50:03.257Z,0
2018-04-02T07:55:02.828Z,1
2018-04-02T08:00:03.415Z,0
2018-04-02T08:05:03.016Z,0
2018-04-02T08:10:02.766Z,0
2018-04-02T08:15:02.817Z,0
2018-04-02T08:20:03.413Z,1
2018-04-02T08:25:03.034Z,1
2018-04-02T08:30:02.666Z,0
2018-04-02T08:35:03.292Z,2
2018-04-02T08:40:02.947Z,0
2018-04-02T08:45:03.534Z,0
2018-04-02T08:50:03.169Z,0
2018-04-02T08:55:02.708Z,2
2018-04-02T09:00:03.210Z,0
2018-04-02T09:05:02.829Z,0
2018-04-02T09:10:03.473Z,0
2018-04-02T09:15:03.033Z,1
2018-04-02T09:20:02.658Z,0
2018-04-02T09:25:03.284Z,0
2018-04-02T09:30:02.841Z,0
2018-04-02T09:35:03.399Z,0
2018-04-02T09:40:02.975Z,1
2018-04-02T09:45:03.543Z,0
2018-04-02T09:50:03.156Z,0
2018-04-02T09:55:02.731Z,2
2018-04-02T10:00:03.272Z,0
2018-04-02T10:05:03.754Z,2
2018-04-02T10:10:03.901Z,2
2018-04-02T10:15:02.645Z,2
2018-04-02T10:20:03.409Z,0
2018-04-02T10:25:03.059Z,3
2018-04-02T10:30:02.954Z,2
2018-04-02T10:35:02.734Z,2
2018-04-02T10:40:03.424Z,2
2018-04-02T10:45:03.033Z,2
2018-04-02T10:50:02.754Z,3
2018-04-02T10:55:03.507Z,0
2018-04-02T11:00:03.104Z,1
2018-04-02T11:05:02.790Z,2
2018-04-02T11:10:03.444Z,0
2018-04-02T11:15:03.089Z,2
2018-04-02T11:20:02.745Z,0
2018-04-02T11:25:03.425Z,2
2018-04-02T11:30:03.025Z,3
2018-04-02T11:35:02.635Z,2
2018-04-02T11:40:03.279Z,4
2018-04-02T11:45:02.849Z,2
2018-04-02T11:50:03.486Z,2
2018-04-02T11:55:03.146Z,2
2018-04-02T12:00:02.730Z,3
2018-04-02T12:05:03.376Z,3
2018-04-02T12:10:03.027Z,3
2018-04-02T12:15:02.692Z,3
2018-04-02T12:20:03.427Z,4
2018-04-02T12:25:03.030Z,2
2018-04-02T12:30:02.655Z,1
2018-04-02T12:35:03.293Z,4
2018-04-02T12:40:03.053Z,3
2018-04-02T12:45:03.400Z,5
2018-04-02T12:50:02.783Z,3
2018-04-02T12:55:03.413Z,3
2018-04-02T13:00:03.016Z,5
2018-04-02T13:05:02.682Z,3
2018-04-02T13:10:03.423Z,2
2018-04-02T13:15:03.078Z,0
2018-04-02T13:20:02.700Z,3
2018-04-02T13:25:03.323Z,2
2018-04-02T13:30:02.945Z,3
2018-04-02T13:35:03.630Z,2
2018-04-02T13:40:03.297Z,3
2018-04-02T13:45:02.916Z,1
2018-04-02T13:50:03.662Z,3
2018-04-02T13:55:03.281Z,2
2018-04-02T14:00:02.950Z,2
2018-04-02T14:05:03.544Z,2
2018-04-02T14:10:03.265Z,2
2018-04-02T14:15:02.814Z,3
2018-04-02T14:20:02.662Z,4
2018-04-02T14:25:03.262Z,0
2018-04-02T14:30:02.913Z,1
2018-04-02T14:35:03.566Z,2
2018-04-02T14:40:03.208Z,1
2018-04-02T14:45:02.795Z,2
2018-04-02T14:50:03.437Z,2
2018-04-02T14:55:03.081Z,2
2018-04-02T15:00:02.819Z,3
2018-04-02T15:05:03.465Z,3
2018-04-02T15:10:03.176Z,2
2018-04-02T15:15:02.692Z,2
2018-04-02T15:20:03.328Z,2
2018-04-02T15:25:02.966Z,1
2018-04-02T15:30:03.571Z,0
2018-04-02T15:35:03.182Z,0
2018-04-02T15:40:02.807Z,3
2018-04-02T15:45:03.415Z,1
2018-04-02T15:50:03.146Z,0
2018-04-02T15:55:02.904Z,3
2018-04-02T16:00:03.488Z,2
2018-04-02T16:05:03.077Z,3
2018-04-02T16:10:02.717Z,2
2018-04-02T16:15:03.328Z,1
2018-04-02T16:20:02.905Z,0
2018-04-02T16:25:03.483Z,0
2018-04-02T16:30:03.042Z,0
2018-04-02T16:35:03.628Z,3
2018-04-02T16:40:03.284Z,1
2018-04-02T16:45:02.861Z,1
2018-04-02T16:50:03.515Z,0
2018-04-02T16:55:03.182Z,0
2018-04-02T17:00:02.779Z,1
2018-04-02T17:05:03.392Z,2
2018-04-02T17:10:03.102Z,1
2018-04-02T17:15:02.707Z,0
2018-04-02T17:20:03.554Z,2
2018-04-02T17:25:03.567Z,1
2018-04-02T17:30:03.152Z,2
2018-04-02T17:35:02.773Z,0
2018-04-02T17:45:03.001Z,1
2018-04-02T17:50:03.568Z,2
2018-04-02T17:55:03.298Z,1
2018-04-02T18:00:03.113Z,1
2018-04-02T18:05:02.682Z,2
2018-04-02T18:10:03.289Z,3
2018-04-02T18:15:02.920Z,3
2018-04-02T18:20:03.520Z,2
2018-04-02T18:25:03.121Z,1
2018-04-02T18:30:02.758Z,2
2018-04-02T18:35:03.360Z,3
2018-04-02T18:40:03.010Z,3
2018-04-02T18:45:02.867Z,3
2018-04-02T18:50:02.645Z,3
2018-04-02T18:55:03.352Z,4
2018-04-02T19:00:02.954Z,2
2018-04-02T19:05:03.600Z,2
2018-04-02T19:10:03.244Z,3
2018-04-02T19:15:02.819Z,3
2018-04-02T19:20:03.511Z,2
2018-04-02T19:25:03.112Z,3
2018-04-02T19:30:03.111Z,4
2018-04-02T19:35:02.614Z,2
2018-04-02T19:40:03.315Z,3
2018-04-02T19:45:02.925Z,4
2018-04-02T19:50:03.607Z,3
2018-04-02T19:55:03.275Z,2
2018-04-02T20:00:02.998Z,2
2018-04-02T20:05:02.659Z,2
2018-04-02T20:10:03.332Z,2
2018-04-02T20:15:02.937Z,1
2018-04-02T20:20:03.593Z,1
2018-04-02T20:25:03.199Z,2
2018-04-02T20:30:03.404Z,1
2018-04-02T20:35:03.176Z,2
2018-04-02T20:40:02.944Z,0
2018-04-02T20:45:03.514Z,0
2018-04-02T20:50:03.135Z,2
2018-04-02T20:55:02.788Z,0
2018-04-02T21:00:03.434Z,2
2018-04-02T21:05:02.973Z,1
2018-04-02T21:10:03.634Z,1
2018-04-02T21:15:03.197Z,2
2018-04-02T21:20:02.918Z,2
2018-04-02T21:25:02.658Z,2
2018-04-02T21:30:03.339Z,2
2018-04-02T21:35:02.948Z,3
2018-04-02T21:40:03.633Z,0
2018-04-02T21:45:03.169Z,3
2018-04-02T21:50:02.841Z,2
2018-04-02T21:55:03.394Z,1
2018-04-02T22:00:02.964Z,3
2018-04-02T22:05:02.668Z,2
2018-04-02T22:10:03.296Z,3
2018-04-02T22:15:02.852Z,2
2018-04-02T22:20:03.533Z,4
2018-04-02T22:25:03.242Z,2
2018-04-02T22:30:02.862Z,3
2018-04-02T22:35:03.502Z,4
2018-04-02T22:40:03.168Z,2
2018-04-02T22:45:02.799Z,4
2018-04-02T22:50:03.401Z,5
2018-04-02T22:55:03.045Z,3
2018-04-02T23:00:05.650Z,7
2018-04-02T23:05:03.341Z,5
2018-04-02T23:10:03.193Z,4
2018-04-02T23:15:02.836Z,5
2018-04-02T23:20:03.574Z,3
2018-04-02T23:25:03.158Z,3
2018-04-02T23:30:02.735Z,4
2018-04-02T23:35:03.360Z,5
2018-04-02T23:40:02.992Z,4
2018-04-02T23:45:03.603Z,6
2018-04-02T23:50:03.307Z,7
2018-04-02T23:55:02.901Z,6
